Time;durP1;ratioP1;P1;durP2;ratioP2;P2;SDS_P1;SDS_P2;PMS_P1;PMS_P2;Temp;Humidity;BMP_temperature;BMP_pressure;BME280_temperature;BME280_humidity;BME280_pressure;Samples;Min_cycle;Max_cycle;Signal;HPM_P1;HPM_P2
2024/01/07 00:02:28;;;;;;;19.00;8.93;;;-4.60;99.90;;;;;;5032449;28;20663;-79
2024/01/07 00:05:15;;;;;;;20.67;9.33;;;-4.50;99.90;;;;;;5032911;28;20196;-79
2024/01/07 00:08:03;;;;;;;21.77;9.80;;;-4.60;99.90;;;;;;5033600;28;20201;-79
2024/01/07 00:10:50;;;;;;;20.47;9.70;;;-4.50;99.90;;;;;;5032025;28;20279;-79
2024/01/07 00:13:40;;;;;;;20.23;9.17;;;-4.50;99.90;;;;;;5032518;28;20669;-78
2024/01/07 00:16:27;;;;;;;22.27;9.80;;;-4.60;99.90;;;;;;5032264;28;20231;-78
2024/01/07 00:19:15;;;;;;;19.37;9.30;;;-4.60;99.90;;;;;;5031610;28;20242;-78
2024/01/07 00:22:03;;;;;;;21.13;10.20;;;-4.60;99.90;;;;;;5032582;28;20245;-78
2024/01/07 00:24:50;;;;;;;18.27;9.47;;;-4.60;99.90;;;;;;5031585;28;20275;-78
2024/01/07 00:27:38;;;;;;;19.60;9.53;;;-4.60;99.90;;;;;;5031436;28;20211;-79
2024/01/07 00:30:25;;;;;;;22.70;9.30;;;-4.70;99.90;;;;;;5032140;28;20313;-78
2024/01/07 00:33:13;;;;;;;21.63;9.43;;;-4.70;99.90;;;;;;5030896;28;20203;-78
2024/01/07 00:36:00;;;;;;;23.93;9.63;;;-4.70;99.90;;;;;;5032666;28;20192;-79
2024/01/07 00:38:48;;;;;;;20.00;9.60;;;-4.70;99.90;;;;;;5032859;28;20223;-79
2024/01/07 00:41:35;;;;;;;22.10;10.07;;;-4.70;99.90;;;;;;5032387;28;20224;-78
2024/01/07 00:44:23;;;;;;;22.50;10.13;;;-4.70;99.90;;;;;;5031793;28;20200;-79
2024/01/07 00:47:10;;;;;;;20.90;9.60;;;-4.80;99.90;;;;;;5032388;28;20187;-78
2024/01/07 00:49:57;;;;;;;24.07;10.70;;;-4.80;99.90;;;;;;5031796;28;20199;-79
2024/01/07 00:52:46;;;;;;;24.47;9.80;;;-4.80;99.90;;;;;;5031819;28;20650;-79
2024/01/07 00:55:35;;;;;;;22.13;10.23;;;-4.80;99.90;;;;;;5029965;28;20279;-78
2024/01/07 00:58:22;;;;;;;21.73;10.10;;;-4.90;99.90;;;;;;5030576;28;20230;-79
2024/01/07 01:01:10;;;;;;;20.13;10.50;;;-4.90;99.90;;;;;;5030731;28;20285;-79
2024/01/07 01:03:57;;;;;;;23.30;9.70;;;-5.00;99.90;;;;;;5030669;28;20204;-79
2024/01/07 01:06:45;;;;;;;21.60;9.77;;;-5.00;99.90;;;;;;5032133;28;20289;-79
2024/01/07 01:09:33;;;;;;;21.57;10.23;;;-5.00;99.90;;;;;;5032209;28;20199;-79
2024/01/07 01:12:20;;;;;;;21.67;10.20;;;-5.00;99.90;;;;;;5031995;28;20345;-79
2024/01/07 01:15:09;;;;;;;18.77;10.07;;;-5.00;99.90;;;;;;5032011;28;20570;-78
2024/01/07 01:17:56;;;;;;;21.07;10.10;;;-5.10;99.90;;;;;;5030357;28;21060;-79
2024/01/07 01:20:43;;;;;;;20.87;10.20;;;-5.10;99.90;;;;;;5031435;28;20188;-79
2024/01/07 01:23:31;;;;;;;21.23;9.93;;;-5.10;99.90;;;;;;5031528;28;20271;-79
2024/01/07 01:26:18;;;;;;;22.23;10.60;;;-5.10;99.90;;;;;;5030970;28;20671;-78
2024/01/07 01:29:05;;;;;;;19.67;9.40;;;-5.10;99.90;;;;;;5030517;28;20199;-79
2024/01/07 01:31:53;;;;;;;21.83;10.00;;;-5.00;99.90;;;;;;5031865;28;20222;-78
2024/01/07 01:34:40;;;;;;;23.17;9.83;;;-5.00;99.90;;;;;;5033051;28;20200;-79
2024/01/07 01:37:28;;;;;;;20.13;10.00;;;-5.10;99.90;;;;;;5030232;28;20572;-78
2024/01/07 01:40:17;;;;;;;24.50;10.90;;;-5.10;99.90;;;;;;5029756;28;20242;-78
2024/01/07 01:43:04;;;;;;;25.03;9.57;;;-5.10;99.90;;;;;;5030326;28;20651;-78
2024/01/07 01:45:53;;;;;;;21.83;10.00;;;-5.10;99.90;;;;;;5031843;28;20576;-79
2024/01/07 01:48:42;;;;;;;21.07;9.80;;;-5.20;99.90;;;;;;5031943;28;20652;-78
2024/01/07 01:51:30;;;;;;;22.23;10.50;;;-5.20;99.90;;;;;;5032276;28;20318;-79
2024/01/07 01:54:18;;;;;;;22.17;10.23;;;-5.20;99.90;;;;;;5032498;28;20271;-78
2024/01/07 01:57:07;;;;;;;20.33;10.17;;;-5.20;99.90;;;;;;5035200;28;20433;-78
2024/01/07 01:59:55;;;;;;;23.03;10.80;;;-5.20;99.90;;;;;;5035332;28;20216;-79
2024/01/07 02:02:42;;;;;;;23.27;10.17;;;-5.30;99.90;;;;;;5035264;28;20278;-78
2024/01/07 02:05:29;;;;;;;23.27;10.53;;;-5.30;99.90;;;;;;5034789;28;20198;-79
2024/01/07 02:08:18;;;;;;;22.67;10.70;;;-5.20;99.90;;;;;;5034596;28;20575;-79
2024/01/07 02:11:17;;;;;;;22.37;10.00;;;-5.30;99.90;;;;;;5034945;28;20587;-78
2024/01/07 02:14:04;;;;;;;19.47;10.03;;;-5.20;99.90;;;;;;5034888;28;20261;-79
2024/01/07 02:16:51;;;;;;;20.80;9.83;;;-5.20;99.90;;;;;;5035113;28;20192;-78
2024/01/07 02:19:39;;;;;;;19.90;10.13;;;-5.10;99.90;;;;;;5036089;28;20805;-79
2024/01/07 02:22:26;;;;;;;20.77;10.23;;;-5.10;99.90;;;;;;5035025;28;20293;-78
2024/01/07 02:25:13;;;;;;;19.17;9.97;;;-5.10;99.90;;;;;;5034292;28;20608;-79
2024/01/07 02:28:01;;;;;;;23.80;10.27;;;-5.00;99.90;;;;;;5034208;28;20215;-79
2024/01/07 02:30:48;;;;;;;19.80;9.17;;;-5.00;99.90;;;;;;5033689;28;20195;-78
2024/01/07 02:33:35;;;;;;;19.60;9.07;;;-4.90;99.90;;;;;;5034638;28;20199;-76
2024/01/07 02:36:23;;;;;;;19.90;8.80;;;-4.90;99.90;;;;;;5033682;28;20633;-79
2024/01/07 02:39:10;;;;;;;20.03;9.07;;;-5.00;99.90;;;;;;5035637;28;20214;-78
2024/01/07 02:41:57;;;;;;;16.90;8.40;;;-5.00;99.90;;;;;;5033762;28;20215;-78
2024/01/07 02:44:45;;;;;;;18.17;8.80;;;-5.00;99.90;;;;;;5035324;28;20207;-78
2024/01/07 02:47:32;;;;;;;21.17;9.33;;;-5.10;99.90;;;;;;5033868;28;20199;-78
2024/01/07 02:50:20;;;;;;;17.33;9.23;;;-5.10;99.90;;;;;;5033494;28;20280;-78
2024/01/07 02:53:09;;;;;;;17.57;8.83;;;-5.10;99.90;;;;;;5033757;28;20187;-78
2024/01/07 02:55:56;;;;;;;20.43;9.47;;;-5.00;99.90;;;;;;5034742;28;20203;-78
2024/01/07 02:58:44;;;;;;;18.03;8.57;;;-5.00;99.90;;;;;;5034272;28;20224;-78
2024/01/07 03:01:31;;;;;;;19.27;8.53;;;-5.10;99.90;;;;;;5034623;28;20285;-78
2024/01/07 03:04:19;;;;;;;16.10;8.07;;;-5.10;99.90;;;;;;5033727;28;20214;-78
2024/01/07 03:07:06;;;;;;;17.83;8.10;;;-5.10;99.90;;;;;;5033306;28;20253;-78
2024/01/07 03:09:54;;;;;;;16.10;7.97;;;-5.10;99.90;;;;;;5034135;28;20704;-79
2024/01/07 03:12:41;;;;;;;16.77;8.40;;;-5.00;99.90;;;;;;5034616;28;20746;-79
2024/01/07 03:15:29;;;;;;;17.20;8.50;;;-5.00;99.90;;;;;;5033551;28;20214;-78
2024/01/07 03:18:16;;;;;;;13.67;7.40;;;-5.10;99.90;;;;;;5032801;28;20417;-78
2024/01/07 03:21:04;;;;;;;17.63;8.07;;;-5.20;99.90;;;;;;5032737;28;20207;-78
2024/01/07 03:23:51;;;;;;;17.83;8.20;;;-5.20;99.90;;;;;;5018527;28;20546;-79
2024/01/07 03:26:38;;;;;;;16.33;7.93;;;-5.30;99.90;;;;;;5035051;28;20211;-78
2024/01/07 03:29:26;;;;;;;15.60;8.47;;;-5.40;99.90;;;;;;5032666;28;20281;-79
2024/01/07 03:32:13;;;;;;;17.23;8.60;;;-5.40;99.90;;;;;;5033705;28;20278;-78
2024/01/07 03:35:02;;;;;;;16.50;8.13;;;-5.40;99.90;;;;;;5033732;28;20188;-79
2024/01/07 03:37:49;;;;;;;14.83;7.60;;;-5.40;99.90;;;;;;5032482;28;20199;-79
2024/01/07 03:40:37;;;;;;;14.57;7.90;;;-5.50;99.90;;;;;;5033615;28;20278;-78
2024/01/07 03:43:24;;;;;;;17.80;8.00;;;-5.50;99.90;;;;;;5034055;28;20191;-79
2024/01/07 03:46:11;;;;;;;18.47;8.20;;;-5.50;99.90;;;;;;5032852;28;20195;-78
2024/01/07 03:48:59;;;;;;;19.50;8.03;;;-5.50;99.90;;;;;;5033553;28;20313;-78
2024/01/07 03:51:47;;;;;;;15.23;8.40;;;-5.60;99.90;;;;;;5033413;28;20296;-78
2024/01/07 03:54:34;;;;;;;16.33;8.50;;;-5.60;99.90;;;;;;5033157;28;20196;-78
2024/01/07 03:57:22;;;;;;;15.23;8.30;;;-5.60;99.90;;;;;;5034506;28;20677;-78
2024/01/07 04:00:10;;;;;;;15.37;7.93;;;-5.70;99.90;;;;;;5032677;28;20226;-78
2024/01/07 04:02:57;;;;;;;13.03;7.23;;;-5.70;99.90;;;;;;5033253;28;20273;-78
2024/01/07 04:05:45;;;;;;;14.90;7.57;;;-5.80;99.90;;;;;;5031991;28;20227;-78
2024/01/07 04:08:32;;;;;;;14.53;7.53;;;-5.80;99.90;;;;;;5033112;28;20194;-77
2024/01/07 04:11:19;;;;;;;16.27;8.00;;;-5.90;99.90;;;;;;5033773;28;20298;-78
2024/01/07 04:14:07;;;;;;;15.50;7.40;;;-5.90;99.90;;;;;;5033429;28;20198;-77
2024/01/07 04:16:54;;;;;;;15.30;7.70;;;-5.80;99.90;;;;;;5032491;28;20199;-80
2024/01/07 04:19:42;;;;;;;15.20;7.17;;;-5.80;99.90;;;;;;5032539;28;20255;-78
2024/01/07 04:22:29;;;;;;;16.20;7.77;;;-5.80;99.90;;;;;;5034025;28;20191;-78
2024/01/07 04:25:17;;;;;;;15.73;7.40;;;-5.80;99.90;;;;;;5032857;28;20203;-78
2024/01/07 04:28:04;;;;;;;14.07;7.53;;;-5.80;99.90;;;;;;5033174;28;20573;-78
2024/01/07 04:30:51;;;;;;;15.00;7.83;;;-5.80;99.90;;;;;;5031452;28;20202;-78
2024/01/07 04:33:39;;;;;;;14.30;8.13;;;-5.80;99.90;;;;;;5033026;28;20270;-78
2024/01/07 04:36:26;;;;;;;14.33;7.23;;;-5.70;99.90;;;;;;5033206;28;20253;-79
2024/01/07 04:39:14;;;;;;;15.03;7.53;;;-5.80;99.90;;;;;;5031869;28;20227;-78
2024/01/07 04:42:01;;;;;;;14.63;7.60;;;-5.80;99.90;;;;;;5033660;28;20214;-78
2024/01/07 04:44:48;;;;;;;14.20;7.60;;;-5.80;99.90;;;;;;5032745;28;20200;-79
2024/01/07 04:47:36;;;;;;;13.20;7.43;;;-5.90;99.90;;;;;;5033369;28;20223;-78
2024/01/07 04:50:23;;;;;;;16.40;7.97;;;-5.90;99.90;;;;;;5034109;28;20647;-78
2024/01/07 04:53:11;;;;;;;14.77;7.80;;;-5.90;99.90;;;;;;5033374;28;20191;-78
2024/01/07 04:55:58;;;;;;;15.33;8.03;;;-6.00;99.90;;;;;;5032578;28;20223;-79
2024/01/07 04:58:46;;;;;;;14.37;7.90;;;-6.00;99.90;;;;;;5033446;28;20302;-78
2024/01/07 05:01:33;;;;;;;15.50;7.60;;;-6.00;99.90;;;;;;5034008;28;20188;-78
2024/01/07 05:04:21;;;;;;;18.97;8.00;;;-6.00;99.90;;;;;;5032072;28;20222;-79
2024/01/07 05:07:09;;;;;;;14.17;6.97;;;-6.00;99.90;;;;;;5032542;28;20714;-78
2024/01/07 05:09:56;;;;;;;14.60;7.37;;;-6.00;99.90;;;;;;5032264;28;20685;-79
2024/01/07 05:12:43;;;;;;;15.57;7.70;;;-6.10;99.90;;;;;;5032560;28;20219;-79
2024/01/07 05:15:31;;;;;;;16.03;8.23;;;-6.10;99.90;;;;;;5033098;28;20206;-78
2024/01/07 05:18:28;;;;;;;16.97;8.40;;;-6.00;99.90;;;;;;5031701;28;20203;-78
2024/01/07 05:21:17;;;;;;;16.93;8.07;;;-6.00;99.90;;;;;;5018412;28;20275;-78
2024/01/07 05:24:05;;;;;;;16.80;8.23;;;-6.10;99.90;;;;;;5032978;28;20277;-80
2024/01/07 05:26:53;;;;;;;15.63;8.43;;;-6.00;99.90;;;;;;5032485;28;20215;-78
2024/01/07 05:29:46;;;;;;;17.90;8.43;;;-6.00;99.90;;;;;;5032768;28;20191;-78
2024/01/07 05:32:33;;;;;;;16.03;8.17;;;-5.90;99.90;;;;;;5035602;28;20203;-78
2024/01/07 05:35:21;;;;;;;18.00;8.70;;;-6.00;99.90;;;;;;5035533;28;20244;-78
2024/01/07 05:38:08;;;;;;;17.67;8.27;;;-6.10;99.90;;;;;;5036779;28;20195;-78
2024/01/07 05:40:55;;;;;;;16.33;7.80;;;-6.10;99.90;;;;;;5036248;28;20226;-78
2024/01/07 05:43:43;;;;;;;17.13;8.33;;;-6.10;99.90;;;;;;5035466;28;20282;-78
2024/01/07 05:46:30;;;;;;;17.43;8.03;;;-6.10;99.90;;;;;;5035628;28;20191;-79
2024/01/07 05:49:17;;;;;;;16.50;7.87;;;-6.00;99.90;;;;;;5035862;28;20268;-79
2024/01/07 05:52:05;;;;;;;16.37;7.63;;;-6.10;99.90;;;;;;5036882;28;20309;-78
2024/01/07 05:54:52;;;;;;;17.67;8.13;;;-6.10;99.90;;;;;;5035785;28;20199;-78
2024/01/07 05:57:40;;;;;;;16.87;8.00;;;-6.10;99.90;;;;;;5035753;28;20338;-78
2024/01/07 06:00:27;;;;;;;19.27;8.30;;;-6.00;99.90;;;;;;5036282;28;20223;-78
2024/01/07 06:03:15;;;;;;;16.50;7.77;;;-6.00;99.90;;;;;;5035481;28;20563;-78
2024/01/07 06:06:02;;;;;;;17.27;8.40;;;-6.10;99.90;;;;;;5034869;28;20235;-77
2024/01/07 06:08:49;;;;;;;16.47;8.13;;;-6.10;99.90;;;;;;5036010;28;20210;-78
2024/01/07 06:11:37;;;;;;;16.87;7.83;;;-6.10;99.90;;;;;;5035406;28;20211;-78
2024/01/07 06:14:24;;;;;;;17.93;8.00;;;-6.20;99.90;;;;;;5035582;28;20266;-79
2024/01/07 06:17:12;;;;;;;14.80;7.90;;;-6.20;99.90;;;;;;5036388;28;20199;-78
2024/01/07 06:19:59;;;;;;;17.10;7.90;;;-6.10;99.90;;;;;;5035374;28;20306;-79
2024/01/07 06:22:46;;;;;;;17.23;7.80;;;-6.10;99.90;;;;;;5034591;28;20207;-79
2024/01/07 06:25:34;;;;;;;16.10;8.00;;;-6.10;99.90;;;;;;5035157;28;20203;-79
2024/01/07 06:28:21;;;;;;;16.93;7.60;;;-6.20;99.90;;;;;;5035555;28;20234;-79
2024/01/07 06:31:08;;;;;;;16.07;8.23;;;-6.20;99.90;;;;;;5035038;28;20407;-79
2024/01/07 06:33:56;;;;;;;14.60;7.53;;;-6.20;99.90;;;;;;5034483;28;20210;-79
2024/01/07 06:36:44;;;;;;;16.67;7.87;;;-6.20;99.90;;;;;;5034565;28;20574;-78
2024/01/07 06:39:34;;;;;;;14.77;7.47;;;-6.30;99.90;;;;;;5033997;28;20212;-78
2024/01/07 06:42:22;;;;;;;15.20;7.60;;;-6.30;99.90;;;;;;5034695;28;20250;-78
2024/01/07 06:45:09;;;;;;;16.77;7.97;;;-6.20;99.90;;;;;;5021470;28;20293;-78
2024/01/07 06:47:56;;;;;;;14.30;7.37;;;-6.20;99.90;;;;;;5034188;28;20622;-78
2024/01/07 06:50:44;;;;;;;14.37;7.37;;;-6.30;99.90;;;;;;5034349;28;20198;-78
2024/01/07 06:53:31;;;;;;;12.90;7.40;;;-6.30;99.90;;;;;;5034456;28;20193;-78
2024/01/07 06:56:18;;;;;;;13.07;7.37;;;-6.30;99.90;;;;;;5034435;28;20212;-78
2024/01/07 06:59:07;;;;;;;16.37;7.97;;;-6.20;99.90;;;;;;5033983;28;20671;-77
2024/01/07 07:01:56;;;;;;;18.27;7.73;;;-6.20;99.90;;;;;;5034147;28;20188;-77
2024/01/07 07:04:43;;;;;;;14.30;7.57;;;-6.30;99.90;;;;;;5033710;28;20200;-79
2024/01/07 07:07:31;;;;;;;13.30;7.30;;;-6.30;99.90;;;;;;5034294;28;20240;-78
2024/01/07 07:10:18;;;;;;;15.13;7.80;;;-6.20;99.90;;;;;;5034096;28;20199;-78
2024/01/07 07:13:05;;;;;;;14.47;7.30;;;-6.20;99.90;;;;;;5033722;28;20284;-77
2024/01/07 07:15:53;;;;;;;13.80;7.33;;;-6.30;99.90;;;;;;5033194;28;20210;-77
2024/01/07 07:18:40;;;;;;;12.03;7.10;;;-6.20;99.90;;;;;;5034608;28;20195;-78
2024/01/07 07:21:27;;;;;;;14.90;7.50;;;-6.20;99.90;;;;;;5033229;28;20195;-78
2024/01/07 07:24:15;;;;;;;15.60;8.00;;;-6.20;99.90;;;;;;5033582;28;20203;-77
2024/01/07 07:27:02;;;;;;;17.17;7.50;;;-6.20;99.90;;;;;;5034046;28;20289;-78
2024/01/07 07:29:50;;;;;;;14.67;7.70;;;-6.10;99.90;;;;;;5034113;28;20203;-77
2024/01/07 07:32:40;;;;;;;15.03;7.67;;;-6.00;99.90;;;;;;5032006;28;20231;-77
2024/01/07 07:35:28;;;;;;;12.93;7.33;;;-6.00;99.90;;;;;;5033665;28;20200;-78
2024/01/07 07:38:15;;;;;;;14.30;7.40;;;-6.00;99.90;;;;;;5033289;28;20224;-77
2024/01/07 07:41:03;;;;;;;14.27;6.97;;;-6.00;99.90;;;;;;5032508;28;20233;-77
2024/01/07 07:43:50;;;;;;;15.50;7.57;;;-5.90;99.90;;;;;;5033596;28;20191;-77
2024/01/07 07:46:38;;;;;;;13.57;7.30;;;-5.90;99.90;;;;;;5034220;28;20195;-77
2024/01/07 07:49:25;;;;;;;14.37;7.33;;;-5.90;99.90;;;;;;5034035;28;20226;-78
2024/01/07 07:52:15;;;;;;;13.73;6.97;;;-5.90;99.90;;;;;;5033829;28;20203;-78
2024/01/07 07:55:03;;;;;;;14.20;7.37;;;-5.90;99.90;;;;;;5033404;28;20690;-77
2024/01/07 07:57:51;;;;;;;13.97;7.60;;;-5.80;99.90;;;;;;5033230;28;20219;-78
2024/01/07 08:00:39;;;;;;;14.07;7.23;;;-5.80;99.90;;;;;;5031971;28;20365;-78
2024/01/07 08:03:27;;;;;;;12.37;7.03;;;-5.80;99.90;;;;;;5034953;28;20262;-78
2024/01/07 08:06:14;;;;;;;13.03;7.17;;;-5.80;99.90;;;;;;5034653;28;20234;-78
2024/01/07 08:09:01;;;;;;;16.10;8.17;;;-5.90;99.90;;;;;;5033410;28;20278;-77
2024/01/07 08:11:49;;;;;;;15.47;7.23;;;-5.80;99.90;;;;;;5032394;28;20212;-77
2024/01/07 08:14:37;;;;;;;16.53;8.30;;;-5.90;99.90;;;;;;5033178;28;20582;-77
2024/01/07 08:17:24;;;;;;;13.43;6.97;;;-5.80;99.90;;;;;;5033896;28;20187;-77
2024/01/07 08:20:15;;;;;;;12.97;6.90;;;-5.70;99.90;;;;;;5033370;28;20264;-77
2024/01/07 08:23:02;;;;;;;16.40;8.00;;;-5.70;99.90;;;;;;5031763;28;20342;-77
2024/01/07 08:25:51;;;;;;;16.13;7.83;;;-5.60;99.90;;;;;;5032978;28;20199;-78
2024/01/07 08:28:38;;;;;;;12.67;7.23;;;-5.60;99.90;;;;;;5033741;28;20282;-78
2024/01/07 08:31:25;;;;;;;13.67;7.50;;;-5.60;99.90;;;;;;5033939;28;20660;-78
2024/01/07 08:34:14;;;;;;;13.87;7.60;;;-5.50;99.90;;;;;;5033766;28;20282;-79
2024/01/07 08:37:02;;;;;;;14.00;7.50;;;-5.50;99.90;;;;;;5033244;28;20210;-77
2024/01/07 08:39:50;;;;;;;12.27;6.93;;;-5.50;99.90;;;;;;5033283;28;20218;-78
2024/01/07 08:42:37;;;;;;;14.90;7.30;;;-5.40;99.90;;;;;;5033311;28;20215;-78
2024/01/07 08:45:25;;;;;;;13.10;7.03;;;-5.40;99.90;;;;;;5033498;28;20473;-78
2024/01/07 08:48:12;;;;;;;13.23;6.60;;;-5.30;99.90;;;;;;5033704;28;20207;-78
2024/01/07 08:51:00;;;;;;;14.20;7.60;;;-5.30;99.90;;;;;;5033060;28;20651;-78
2024/01/07 08:53:47;;;;;;;13.17;6.87;;;-5.30;99.90;;;;;;5032900;28;20199;-78
2024/01/07 08:56:35;;;;;;;14.27;6.73;;;-5.30;99.90;;;;;;5032560;28;20671;-77
2024/01/07 08:59:22;;;;;;;13.83;7.20;;;-5.30;99.90;;;;;;5033241;28;20202;-77
2024/01/07 09:02:10;;;;;;;15.03;7.67;;;-5.30;99.90;;;;;;5032411;28;20647;-77
2024/01/07 09:04:57;;;;;;;15.97;7.60;;;-5.30;99.90;;;;;;5035372;28;20199;-77
2024/01/07 09:07:45;;;;;;;16.13;7.27;;;-5.30;99.90;;;;;;5036035;28;20195;-78
2024/01/07 09:10:33;;;;;;;14.73;7.30;;;-5.30;99.90;;;;;;5036780;28;20195;-78
2024/01/07 09:13:21;;;;;;;14.73;7.47;;;-5.30;99.90;;;;;;5036890;28;20592;-78
2024/01/07 09:16:11;;;;;;;12.07;6.80;;;-5.30;99.90;;;;;;5036978;28;20274;-77
2024/01/07 09:18:59;;;;;;;15.10;7.73;;;-5.20;99.90;;;;;;5036512;28;20196;-78
2024/01/07 09:21:46;;;;;;;13.13;7.37;;;-5.20;99.90;;;;;;5040313;28;20226;-78
2024/01/07 09:24:34;;;;;;;12.43;6.87;;;-5.10;99.90;;;;;;5036209;28;20195;-78
2024/01/07 09:27:21;;;;;;;13.77;7.47;;;-5.20;99.90;;;;;;5035949;28;20215;-79
2024/01/07 09:30:10;;;;;;;13.80;7.47;;;-5.30;99.90;;;;;;5035805;28;20245;-79
2024/01/07 09:32:58;;;;;;;13.80;7.47;;;-5.30;99.90;;;;;;5035843;28;20317;-79
2024/01/07 09:35:45;;;;;;;13.00;7.07;;;-5.10;99.90;;;;;;5035730;28;20196;-78
2024/01/07 09:38:33;;;;;;;13.93;7.03;;;-5.20;99.90;;;;;;5037049;28;20619;-78
2024/01/07 09:41:20;;;;;;;15.27;7.03;;;-5.20;99.90;;;;;;5032772;28;20227;-77
2024/01/07 09:44:08;;;;;;;14.33;6.97;;;-5.30;99.90;;;;;;5035536;28;20274;-78
2024/01/07 09:46:57;;;;;;;12.93;6.70;;;-5.20;99.90;;;;;;5035551;28;20200;-78
2024/01/07 09:49:45;;;;;;;15.40;7.30;;;-5.20;99.90;;;;;;5036517;28;20663;-78
2024/01/07 09:52:33;;;;;;;12.20;6.60;;;-5.20;99.90;;;;;;5034680;28;20230;-78
2024/01/07 09:55:40;;;;;;;14.37;7.20;;;-5.30;99.90;;;;;;5034207;28;20191;-78
2024/01/07 09:58:28;;;;;;;12.93;6.53;;;-5.40;99.90;;;;;;5036530;28;20195;-78
2024/01/07 10:01:19;;;;;;;11.67;6.37;;;-5.40;99.90;;;;;;5034606;28;20233;-78
2024/01/07 10:04:06;;;;;;;14.17;7.03;;;-5.40;99.90;;;;;;5035671;28;20570;-79
2024/01/07 10:06:54;;;;;;;14.30;7.07;;;-5.30;99.90;;;;;;5035385;28;20230;-78
2024/01/07 10:09:44;;;;;;;12.87;6.50;;;-5.30;99.90;;;;;;5034593;28;20657;-79
2024/01/07 10:12:34;;;;;;;11.97;6.23;;;-5.20;99.90;;;;;;5035068;28;20663;-78
2024/01/07 10:15:22;;;;;;;10.40;5.37;;;-5.10;99.90;;;;;;5033414;28;20238;-78
2024/01/07 10:18:10;;;;;;;9.57;5.40;;;-5.00;99.90;;;;;;5034902;28;20286;-78
2024/01/07 10:21:05;;;;;;;10.23;5.73;;;-4.90;99.90;;;;;;5035217;28;20247;-78
2024/01/07 10:24:11;;;;;;;9.20;5.30;;;-4.80;99.90;;;;;;5036114;28;20230;-78
2024/01/07 10:26:59;;;;;;;10.03;5.73;;;-5.00;99.90;;;;;;5020668;28;20215;-78
2024/01/07 10:29:50;;;;;;;9.03;5.30;;;-5.00;99.90;;;;;;5034672;28;20281;-77
2024/01/07 10:32:38;;;;;;;10.17;5.10;;;-5.10;99.90;;;;;;5035605;28;20211;-78
2024/01/07 10:35:33;;;;;;;9.17;5.07;;;-5.10;99.90;;;;;;5035706;28;20210;-78
2024/01/07 10:38:24;;;;;;;8.10;5.23;;;-5.10;99.90;;;;;;5033631;28;20231;-81
2024/01/07 10:41:12;;;;;;;9.60;5.30;;;-5.10;99.90;;;;;;5034479;28;20372;-79
2024/01/07 10:43:59;;;;;;;9.30;5.47;;;-5.00;99.90;;;;;;5035241;28;20285;-80
2024/01/07 10:46:48;;;;;;;9.47;5.33;;;-4.90;99.90;;;;;;5034172;28;20623;-79
2024/01/07 10:49:39;;;;;;;9.30;5.17;;;-4.90;99.90;;;;;;5033448;28;20271;-78
2024/01/07 10:52:27;;;;;;;9.00;4.90;;;-5.10;99.90;;;;;;5033369;28;20223;-78
2024/01/07 10:55:18;;;;;;;9.83;5.27;;;-5.10;99.90;;;;;;5033506;28;20245;-79
2024/01/07 10:58:05;;;;;;;10.07;5.40;;;-5.00;99.90;;;;;;5032981;28;20648;-79
2024/01/07 11:00:54;;;;;;;9.40;5.40;;;-5.00;99.90;;;;;;5034688;28;20226;-78
2024/01/07 11:04:06;;;;;;;9.90;5.13;;;-4.80;99.90;;;;;;5032470;28;20282;-78
2024/01/07 11:07:37;;;;;;;8.50;4.87;;;-4.70;99.90;;;;;;5034012;28;20363;-78
2024/01/07 11:10:39;;;;;;;10.43;5.50;;;-4.70;99.90;;;;;;5012660;28;20579;-77
2024/01/07 11:13:39;;;;;;;11.23;5.90;;;-4.80;99.90;;;;;;5012520;28;20204;-77
2024/01/07 11:16:46;;;;;;;10.43;5.33;;;-4.70;99.90;;;;;;5011800;28;20208;-78
2024/01/07 11:19:35;;;;;;;10.30;5.73;;;-4.70;99.90;;;;;;5012052;28;20327;-78
2024/01/07 11:22:29;;;;;;;10.60;6.23;;;-4.70;99.90;;;;;;5011487;28;20649;-78
2024/01/07 11:25:32;;;;;;;10.87;5.83;;;-4.70;99.90;;;;;;5010676;28;20239;-78
2024/01/07 11:28:46;;;;;;;11.23;6.33;;;-4.70;99.90;;;;;;5010864;28;20195;-78
2024/01/07 11:31:39;;;;;;;12.10;6.40;;;-4.70;99.90;;;;;;4998266;28;20238;-78
2024/01/07 11:34:52;;;;;;;10.33;5.60;;;-4.80;99.90;;;;;;4998482;28;20203;-78
2024/01/07 11:37:40;;;;;;;9.90;5.40;;;-4.80;99.90;;;;;;5010534;28;20200;-77
2024/01/07 11:40:28;;;;;;;9.97;5.90;;;-4.90;99.90;;;;;;4998229;28;20324;-77
2024/01/07 11:43:15;;;;;;;11.47;5.73;;;-5.00;99.90;;;;;;5011642;28;20208;-77
2024/01/07 11:46:03;;;;;;;9.80;5.87;;;-5.00;99.90;;;;;;5026391;28;20275;-77
2024/01/07 11:48:57;;;;;;;10.07;5.70;;;-5.00;99.90;;;;;;5033364;28;20231;-78
2024/01/07 11:51:46;;;;;;;9.30;5.37;;;-4.90;99.90;;;;;;5032053;28;20187;-77
2024/01/07 11:54:33;;;;;;;10.70;5.53;;;-4.90;99.90;;;;;;5032151;28;20196;-78
2024/01/07 11:57:20;;;;;;;9.97;5.57;;;-4.80;99.90;;;;;;5032297;28;20520;-77
2024/01/07 12:00:08;;;;;;;10.83;5.70;;;-4.70;99.90;;;;;;5032952;28;20634;-77
2024/01/07 12:02:56;;;;;;;10.33;5.70;;;-4.80;99.90;;;;;;5033831;28;20192;-78
2024/01/07 12:05:44;;;;;;;11.27;6.43;;;-5.00;99.90;;;;;;5033410;28;20289;-81
2024/01/07 12:08:31;;;;;;;11.43;6.43;;;-5.10;99.90;;;;;;5032346;28;20199;-79
2024/01/07 12:11:19;;;;;;;11.07;6.33;;;-5.20;99.90;;;;;;5032248;28;20220;-78
2024/01/07 12:14:08;;;;;;;14.33;6.57;;;-5.20;99.90;;;;;;5031711;28;20571;-78
2024/01/07 12:16:56;;;;;;;10.47;6.47;;;-5.20;99.90;;;;;;5032751;28;20206;-78
2024/01/07 12:19:43;;;;;;;11.40;6.53;;;-5.30;99.90;;;;;;5032529;28;20206;-74
2024/01/07 12:22:30;;;;;;;10.83;6.43;;;-5.40;99.90;;;;;;5032425;28;20691;-74
2024/01/07 12:25:24;;;;;;;12.80;6.53;;;-5.40;99.90;;;;;;5032582;28;20207;-74
2024/01/07 12:28:12;;;;;;;12.30;6.90;;;-5.40;99.90;;;;;;5031939;28;20667;-74
2024/01/07 12:31:01;;;;;;;13.37;6.90;;;-5.40;99.90;;;;;;5031280;28;20550;-74
2024/01/07 12:33:49;;;;;;;15.03;6.50;;;-5.50;99.90;;;;;;5032498;28;20207;-74
2024/01/07 12:36:38;;;;;;;11.53;6.47;;;-5.50;99.90;;;;;;5032894;28;20195;-79
2024/01/07 12:39:26;;;;;;;13.43;6.30;;;-5.50;99.90;;;;;;5031078;28;20288;-79
2024/01/07 12:42:15;;;;;;;12.63;6.20;;;-5.50;99.90;;;;;;5032759;28;20361;-80
2024/01/07 12:45:02;;;;;;;11.13;6.13;;;-5.50;99.90;;;;;;5032506;28;20198;-80
2024/01/07 12:47:50;;;;;;;14.57;6.93;;;-5.50;99.90;;;;;;5030720;28;20197;-79
2024/01/07 12:50:37;;;;;;;9.77;6.20;;;-5.50;99.90;;;;;;5034207;28;20196;-78
2024/01/07 12:53:24;;;;;;;10.33;6.03;;;-5.50;99.90;;;;;;5032799;28;20337;-75
2024/01/07 12:56:13;;;;;;;10.93;6.27;;;-5.50;99.90;;;;;;5031730;28;20220;-83
2024/01/07 12:59:00;;;;;;;11.33;6.43;;;-5.30;99.90;;;;;;5031877;28;20249;-84
2024/01/07 13:01:47;;;;;;;11.73;6.47;;;-5.40;99.90;;;;;;5033654;28;20269;-75
2024/01/07 13:04:35;;;;;;;11.13;6.40;;;-5.40;99.90;;;;;;5031871;28;20195;-81
2024/01/07 13:07:23;;;;;;;10.77;6.37;;;-5.40;99.90;;;;;;5031380;28;20227;-82
2024/01/07 13:10:10;;;;;;;10.87;6.13;;;-5.30;99.90;;;;;;5030741;28;20200;-81
2024/01/07 13:12:58;;;;;;;10.70;5.83;;;-5.40;99.90;;;;;;5031220;28;20675;-81
2024/01/07 13:16:01;;;;;;;11.00;6.60;;;-5.40;99.90;;;;;;5032362;28;20199;-84
2024/01/07 13:18:48;;;;;;;11.10;5.93;;;-5.40;99.90;;;;;;5031501;28;20204;-83
2024/01/07 13:21:37;;;;;;;14.83;6.90;;;-5.30;99.90;;;;;;5031194;28;20223;-84
2024/01/07 13:24:27;;;;;;;12.87;6.73;;;-5.30;99.90;;;;;;5032726;28;20635;-85
2024/01/07 13:27:15;;;;;;;10.80;5.70;;;-5.40;99.90;;;;;;5032390;28;20227;-83
2024/01/07 13:30:03;;;;;;;10.90;5.97;;;-5.70;99.90;;;;;;5032957;28;20529;-83
2024/01/07 13:32:51;;;;;;;11.23;6.33;;;-5.80;99.90;;;;;;5032332;28;20195;-83
2024/01/07 13:35:39;;;;;;;10.60;6.27;;;-5.80;99.90;;;;;;5032122;28;20356;-83
2024/01/07 13:38:26;;;;;;;12.30;6.27;;;-5.80;99.90;;;;;;5031274;28;20196;-84
2024/01/07 13:41:14;;;;;;;10.77;6.20;;;-5.90;99.90;;;;;;5030939;28;20239;-83
2024/01/07 13:44:03;;;;;;;12.37;6.20;;;-6.00;99.90;;;;;;5031777;28;20377;-84
2024/01/07 13:46:52;;;;;;;11.53;6.20;;;-6.00;99.90;;;;;;5031313;28;20201;-84
2024/01/07 13:49:40;;;;;;;9.83;6.10;;;-6.10;99.90;;;;;;5032318;28;20262;-83
2024/01/07 13:52:29;;;;;;;12.90;6.40;;;-6.20;99.90;;;;;;5035788;28;20197;-83
2024/01/07 13:55:17;;;;;;;12.97;6.50;;;-6.20;99.90;;;;;;5033935;28;20222;-81
2024/01/07 13:58:04;;;;;;;12.63;6.57;;;-6.20;99.90;;;;;;5036352;28;20234;-82
2024/01/07 14:00:52;;;;;;;13.80;6.80;;;-6.20;99.90;;;;;;5035442;28;20297;-82
2024/01/07 14:03:40;;;;;;;10.33;6.07;;;-6.30;99.90;;;;;;5034997;28;20195;-83
2024/01/07 14:06:28;;;;;;;11.37;6.23;;;-6.30;99.90;;;;;;5034991;28;20238;-84
2024/01/07 14:09:15;;;;;;;12.00;6.50;;;-6.20;99.90;;;;;;5035024;28;20735;-83
2024/01/07 14:12:03;;;;;;;14.10;6.77;;;-6.20;99.90;;;;;;5036744;28;20311;-82
2024/01/07 14:14:50;;;;;;;12.87;6.20;;;-6.20;99.90;;;;;;5035080;28;20200;-82
2024/01/07 14:17:39;;;;;;;12.67;6.17;;;-6.40;99.90;;;;;;5034733;28;20558;-85
2024/01/07 14:20:28;;;;;;;11.70;6.40;;;-6.40;99.90;;;;;;5035248;28;20278;-86
2024/01/07 14:23:15;;;;;;;11.93;6.80;;;-6.40;99.90;;;;;;5035228;28;20249;-85
2024/01/07 14:26:03;;;;;;;11.17;6.03;;;-6.50;99.90;;;;;;5035393;28;20277;-85